Time;durP1;ratioP1;P1;durP2;ratioP2;P2;SDS_P1;SDS_P2;PMS_P1;PMS_P2;Temp;Humidity;BMP_temperature;BMP_pressure;BME280_temperature;BME280_humidity;BME280_pressure;Samples;Min_cycle;Max_cycle;Signal;HPM_P1;HPM_P2
2022/04/05 00:02:10;;;;;;;11.23;5.70;;;;;;;4.17;71.61;96442.91;5016587;28;20046;-66
2022/04/05 00:04:35;;;;;;;9.90;5.80;;;;;;;4.25;71.55;96452.09;5018531;28;20038;-65
2022/04/05 00:07:01;;;;;;;9.95;6.25;;;;;;;4.22;71.84;96448.91;5037081;28;20034;-66
2022/04/05 00:09:26;;;;;;;11.85;5.75;;;;;;;4.14;71.57;96446.28;5026580;28;20071;-65
2022/04/05 00:11:51;;;;;;;10.43;6.50;;;;;;;4.20;72.57;96440.31;5026374;28;20077;-67
2022/04/05 00:14:17;;;;;;;8.90;5.60;;;;;;;4.13;71.88;96439.28;5025604;28;20026;-67
2022/04/05 00:16:42;;;;;;;11.55;6.40;;;;;;;4.12;71.96;96438.47;5024767;28;20088;-64
2022/04/05 00:19:08;;;;;;;9.95;5.68;;;;;;;4.13;72.25;96431.94;5021431;28;20061;-64
2022/04/05 00:21:34;;;;;;;10.20;5.95;;;;;;;4.12;72.17;96427.63;5023472;28;20105;-65
2022/04/05 00:24:00;;;;;;;9.77;5.97;;;;;;;4.13;72.35;96434.66;5022810;28;20034;-66
2022/04/05 00:26:26;;;;;;;9.98;5.63;;;;;;;4.12;72.48;96435.75;5019953;28;20498;-64
2022/04/05 00:28:51;;;;;;;9.93;6.43;;;;;;;4.17;72.40;96432.84;5013745;28;20065;-68
2022/04/05 00:31:17;;;;;;;11.18;5.75;;;;;;;4.19;72.16;96427.09;5017131;28;20026;-63
2022/04/05 00:33:42;;;;;;;9.98;6.28;;;;;;;4.21;72.52;96427.56;5016615;28;20038;-64
2022/04/05 00:36:08;;;;;;;12.20;6.50;;;;;;;4.16;72.65;96425.84;5013475;28;20029;-67
2022/04/05 00:38:33;;;;;;;12.88;6.30;;;;;;;4.07;73.49;96432.47;5012638;28;20026;-65
2022/04/05 00:40:59;;;;;;;9.82;6.30;;;;;;;4.06;74.01;96423.53;5014694;28;20041;-64
2022/04/05 00:43:25;;;;;;;8.73;5.80;;;;;;;4.01;73.89;96426.44;5010878;28;20029;-66
2022/04/05 00:45:51;;;;;;;12.93;6.22;;;;;;;4.11;73.94;96434.19;5011915;28;20536;-65
2022/04/05 00:48:40;;;;;;;11.68;6.40;;;;;;;4.09;74.15;96433.72;5013718;28;20048;-66
2022/04/05 00:51:05;;;;;;;11.63;6.38;;;;;;;4.06;74.67;96431.66;5011970;28;20041;-66
2022/04/05 00:53:33;;;;;;;9.93;6.47;;;;;;;4.09;74.37;96427.50;5012397;28;20041;-64
2022/04/05 00:56:00;;;;;;;10.48;6.10;;;;;;;3.99;75.60;96434.13;5014074;28;20511;-67
2022/04/05 00:58:27;;;;;;;14.32;5.78;;;;;;;4.00;75.61;96435.72;5012148;28;20053;-64
2022/04/05 01:00:53;;;;;;;8.70;5.85;;;;;;;3.98;75.62;96441.47;5012217;28;20061;-64
2022/04/05 01:03:20;;;;;;;9.57;6.13;;;;;;;4.01;75.66;96434.56;5021708;28;20030;-65
2022/04/05 01:05:46;;;;;;;10.45;6.55;;;;;;;4.05;74.86;96435.50;5022045;28;20037;-64
2022/04/05 01:08:17;;;;;;;15.43;8.30;;;;;;;4.07;74.92;96430.56;5002556;28;20030;-63
2022/04/05 01:10:45;;;;;;;10.80;6.28;;;;;;;4.10;75.06;96442.66;5013450;28;20033;-66
2022/04/05 01:13:10;;;;;;;13.15;6.78;;;;;;;4.05;75.02;96432.00;5012163;28;20140;-66
2022/04/05 01:15:36;;;;;;;13.43;6.95;;;;;;;4.04;75.41;96425.78;5014465;28;20109;-62
2022/04/05 01:18:01;;;;;;;10.15;6.63;;;;;;;4.08;74.79;96423.22;5011910;28;20044;-64
2022/04/05 01:20:27;;;;;;;9.32;5.72;;;;;;;4.06;74.68;96422.75;5021881;28;20030;-66
2022/04/05 01:22:57;;;;;;;8.85;6.20;;;;;;;3.94;75.63;96418.88;5035872;28;20060;-69
2022/04/05 01:25:22;;;;;;;12.10;6.80;;;;;;;3.96;75.95;96415.78;5029184;28;20032;-68
2022/04/05 01:27:49;;;;;;;10.98;6.15;;;;;;;4.00;75.63;96408.63;5034207;28;20006;-64
2022/04/05 01:30:15;;;;;;;9.00;5.90;;;;;;;3.92;76.16;96418.38;5017725;28;20088;-64
2022/04/05 01:32:41;;;;;;;9.82;6.28;;;;;;;3.93;76.89;96411.06;5015880;28;20029;-65
2022/04/05 01:35:08;;;;;;;10.43;5.47;;;;;;;4.04;77.07;96403.31;5013059;28;20136;-64
2022/04/05 01:37:33;;;;;;;11.85;6.30;;;;;;;3.94;77.64;96404.50;5011756;28;20084;-65
2022/04/05 01:39:59;;;;;;;9.88;6.07;;;;;;;3.87;78.03;96406.94;5012926;28;20438;-63
2022/04/05 01:42:25;;;;;;;12.10;6.97;;;;;;;3.86;77.67;96405.38;5011014;28;20533;-61
2022/04/05 01:44:50;;;;;;;12.93;6.82;;;;;;;3.74;77.97;96408.78;5010011;28;20022;-66
2022/04/05 01:47:18;;;;;;;10.82;6.32;;;;;;;3.76;77.97;96406.53;5010881;28;20040;-67
2022/04/05 01:49:45;;;;;;;12.75;6.68;;;;;;;3.79;77.51;96401.25;5011514;28;20101;-64
2022/04/05 01:52:11;;;;;;;10.95;6.82;;;;;;;3.86;77.13;96405.38;5011011;28;20029;-67
2022/04/05 01:54:38;;;;;;;9.65;6.53;;;;;;;3.92;77.19;96404.03;5016914;28;20391;-64
2022/04/05 01:57:05;;;;;;;10.32;6.45;;;;;;;3.83;77.28;96399.50;5015326;28;20080;-66
2022/04/05 01:59:33;;;;;;;9.68;5.50;;;;;;;3.79;77.83;96395.84;5010489;28;20033;-64
2022/04/05 02:01:58;;;;;;;10.13;6.35;;;;;;;3.78;78.52;96391.56;5016028;28;20037;-64
2022/04/05 02:04:24;;;;;;;10.50;6.30;;;;;;;3.75;78.72;96386.78;5012326;28;20083;-66
2022/04/05 02:06:50;;;;;;;9.95;5.97;;;;;;;3.87;78.11;96390.69;5011696;28;20033;-66
2022/04/05 02:09:16;;;;;;;10.60;6.38;;;;;;;3.89;77.80;96383.84;5010910;28;20033;-67
2022/04/05 02:11:43;;;;;;;10.13;5.95;;;;;;;3.99;77.11;96383.41;5012023;28;20030;-64
2022/04/05 02:14:09;;;;;;;8.93;5.60;;;;;;;3.89;76.76;96383.03;5012011;28;20487;-63
2022/04/05 02:16:35;;;;;;;11.57;6.35;;;;;;;3.79;77.84;96384.22;5011662;28;20115;-64
2022/04/05 02:19:00;;;;;;;10.15;6.10;;;;;;;3.77;77.30;96383.75;5011979;28;20061;-66
2022/04/05 02:21:26;;;;;;;9.18;6.45;;;;;;;3.81;77.14;96382.75;5011877;28;20053;-65
2022/04/05 02:23:51;;;;;;;10.88;6.15;;;;;;;3.75;78.08;96381.38;5012557;28;20034;-67
2022/04/05 02:26:17;;;;;;;10.48;6.32;;;;;;;3.81;76.90;96385.47;5012540;28;20459;-66
2022/04/05 02:28:43;;;;;;;11.45;6.10;;;;;;;3.80;76.30;96381.19;5013148;28;20038;-66
2022/04/05 02:31:09;;;;;;;11.57;6.07;;;;;;;3.80;76.52;96381.19;5016544;28;20026;-65
2022/04/05 02:33:34;;;;;;;9.38;6.22;;;;;;;3.78;76.26;96383.44;5033929;28;20053;-66
2022/04/05 02:36:00;;;;;;;9.85;6.03;;;;;;;3.74;76.66;96379.00;5031905;28;20034;-64
2022/04/05 02:38:25;;;;;;;10.57;5.88;;;;;;;3.75;76.57;96372.47;5020468;28;20398;-65
2022/04/05 02:40:52;;;;;;;9.18;6.15;;;;;;;3.82;76.08;96368.09;5010815;28;20038;-66
2022/04/05 02:43:17;;;;;;;11.10;6.90;;;;;;;3.79;75.26;96366.03;5010762;28;20026;-65
2022/04/05 02:45:43;;;;;;;11.93;6.55;;;;;;;3.70;75.85;96370.72;5010911;28;20026;-65
2022/04/05 02:48:08;;;;;;;9.68;6.05;;;;;;;3.88;75.44;96381.44;5013905;28;20030;-67
2022/04/05 02:50:34;;;;;;;10.63;6.55;;;;;;;3.83;75.48;96377.00;5014868;28;20044;-65
2022/04/05 02:52:59;;;;;;;10.70;6.30;;;;;;;3.89;75.58;96378.41;5014524;28;20041;-66
2022/04/05 02:55:24;;;;;;;10.27;6.40;;;;;;;3.87;75.20;96382.56;5025120;28;20054;-66
2022/04/05 02:57:50;;;;;;;9.82;5.88;;;;;;;3.91;75.44;96386.22;5022966;28;20077;-65
2022/04/05 03:00:17;;;;;;;11.02;6.07;;;;;;;3.83;75.84;96391.38;5016401;28;20072;-67
2022/04/05 03:02:43;;;;;;;9.93;6.18;;;;;;;3.88;76.00;96384.94;5011579;28;20033;-66
2022/04/05 03:05:10;;;;;;;9.70;5.80;;;;;;;3.78;75.67;96388.03;4996142;28;20026;-66
2022/04/05 03:07:37;;;;;;;10.63;6.85;;;;;;;3.79;75.67;96384.22;4996636;28;20026;-64
2022/04/05 03:10:08;;;;;;;8.85;5.90;;;;;;;3.70;76.88;96380.78;5014800;28;20099;-66
2022/04/05 03:12:37;;;;;;;11.82;6.10;;;;;;;3.77;76.60;96373.72;5017305;28;20026;-66
2022/04/05 03:15:05;;;;;;;10.07;6.18;;;;;;;3.78;76.63;96378.00;5017119;28;20095;-65
2022/04/05 03:17:31;;;;;;;10.38;6.43;;;;;;;3.85;76.11;96384.81;5014793;28;20038;-66
2022/04/05 03:19:59;;;;;;;11.55;6.32;;;;;;;3.83;76.08;96380.53;5016127;28;20569;-64
2022/04/05 03:22:24;;;;;;;11.68;6.70;;;;;;;3.79;76.07;96382.28;5014727;28;20538;-66
2022/04/05 03:24:50;;;;;;;12.48;6.68;;;;;;;3.81;75.62;96384.69;5015740;28;20097;-65
2022/04/05 03:27:16;;;;;;;10.45;6.90;;;;;;;3.75;75.39;96380.59;5013582;28;20033;-63
2022/04/05 03:29:41;;;;;;;10.05;6.25;;;;;;;3.88;75.50;96384.16;5013766;28;20115;-67
2022/04/05 03:32:08;;;;;;;11.73;6.32;;;;;;;3.88;73.92;96384.16;5012426;28;20061;-67
2022/04/05 03:34:34;;;;;;;8.18;6.15;;;;;;;3.93;73.68;96389.38;5014295;28;20033;-66
2022/04/05 03:36:59;;;;;;;9.68;5.97;;;;;;;3.91;73.34;96391.63;5014385;28;20061;-65
2022/04/05 03:39:25;;;;;;;13.57;5.88;;;;;;;3.93;73.27;96394.81;5013362;28;20029;-63
2022/04/05 03:41:51;;;;;;;9.25;5.85;;;;;;;3.83;73.85;96388.66;5015226;28;20105;-66
2022/04/05 03:44:16;;;;;;;11.45;6.20;;;;;;;3.79;74.29;96384.22;5013372;28;20487;-64
2022/04/05 03:46:41;;;;;;;10.73;6.50;;;;;;;3.67;75.86;96393.06;5013249;28;20387;-64
2022/04/05 03:49:07;;;;;;;11.98;6.60;;;;;;;3.61;76.66;96395.16;5013956;28;20853;-65
2022/04/05 03:51:33;;;;;;;10.88;6.60;;;;;;;3.67;76.85;96386.84;5032104;28;20034;-64
2022/04/05 03:53:58;;;;;;;11.60;6.47;;;;;;;3.57;78.15;96393.47;5034464;28;20022;-65
2022/04/05 03:56:23;;;;;;;11.23;6.78;;;;;;;3.65;79.34;96389.88;5033482;28;20029;-67
2022/04/05 03:58:49;;;;;;;11.55;6.55;;;;;;;3.78;78.75;96390.75;5030714;28;20029;-67
2022/04/05 04:01:15;;;;;;;10.63;6.50;;;;;;;3.83;79.44;96396.78;5013661;28;20038;-66
2022/04/05 04:03:41;;;;;;;9.13;6.18;;;;;;;3.90;80.08;96396.25;5011913;28;20034;-66
2022/04/05 04:06:06;;;;;;;15.00;6.40;;;;;;;3.76;81.75;96393.00;5014184;28;20117;-67
2022/04/05 04:08:32;;;;;;;13.23;6.97;;;;;;;3.57;83.18;96398.88;5013197;28;20038;-63
2022/04/05 04:10:57;;;;;;;10.85;6.60;;;;;;;3.25;86.08;96398.41;5014176;28;20073;-64
2022/04/05 04:13:24;;;;;;;12.32;6.85;;;;;;;3.28;87.05;96396.94;5012303;28;20026;-64
2022/04/05 04:15:49;;;;;;;11.07;6.57;;;;;;;3.22;88.18;96397.16;5013722;28;20112;-66
2022/04/05 04:18:15;;;;;;;9.50;6.70;;;;;;;3.24;89.17;96399.50;5013524;28;20045;-64
2022/04/05 04:20:43;;;;;;;13.48;6.25;;;;;;;3.16;89.79;96401.16;5013737;28;20398;-65
2022/04/05 04:23:10;;;;;;;9.20;5.63;;;;;;;3.27;89.83;96404.28;5010557;28;20026;-64
2022/04/05 04:25:39;;;;;;;9.32;5.75;;;;;;;3.15;91.39;96398.75;5013764;28;20029;-64
2022/04/05 04:28:07;;;;;;;15.27;7.27;;;;;;;3.00;91.58;96398.19;5012758;28;20033;-65
2022/04/05 04:30:34;;;;;;;10.80;6.55;;;;;;;2.90;93.85;96398.56;5011903;28;20161;-65
2022/04/05 04:32:59;;;;;;;9.98;6.43;;;;;;;2.98;93.84;96395.03;5012012;28;20034;-66
2022/04/05 04:35:26;;;;;;;9.57;6.10;;;;;;;2.90;95.80;96403.16;5012594;28;20030;-63
2022/04/05 04:37:52;;;;;;;13.45;6.65;;;;;;;2.92;95.11;96395.50;5014694;28;20030;-64
2022/04/05 04:40:18;;;;;;;11.77;6.63;;;;;;;2.82;97.17;96404.78;5012721;28;20044;-64
2022/04/05 04:42:44;;;;;;;12.00;6.72;;;;;;;2.96;95.82;96399.97;5014437;28;20025;-67
2022/04/05 04:45:11;;;;;;;12.00;7.30;;;;;;;2.86;96.86;96393.00;5011658;28;20030;-66
2022/04/05 04:47:36;;;;;;;11.65;6.75;;;;;;;2.79;96.20;96395.44;5013656;28;20104;-66
2022/04/05 04:50:02;;;;;;;9.55;6.70;;;;;;;2.87;97.92;96399.22;5022092;28;20420;-66
2022/04/05 04:52:27;;;;;;;14.40;7.20;;;;;;;2.87;97.05;96393.81;5018399;28;20041;-67
2022/04/05 04:54:53;;;;;;;13.43;6.95;;;;;;;2.85;95.64;96386.00;5013999;28;20037;-65
2022/04/05 04:57:19;;;;;;;10.63;6.40;;;;;;;2.83;96.49;96392.88;5018197;28;20033;-65
2022/04/05 04:59:44;;;;;;;10.43;6.35;;;;;;;2.84;96.61;96389.81;5022448;28;20040;-64
2022/04/05 05:02:10;;;;;;;11.35;6.65;;;;;;;2.98;93.49;96389.59;5017487;28;20030;-64
2022/04/05 05:04:35;;;;;;;12.38;7.10;;;;;;;2.92;93.48;96385.50;5024725;28;20083;-66
2022/04/05 05:07:01;;;;;;;10.93;6.63;;;;;;;3.01;93.95;96386.25;5023149;28;20030;-66
2022/04/05 05:09:27;;;;;;;13.90;6.47;;;;;;;2.91;91.55;96397.44;5019405;28;20023;-66
2022/04/05 05:11:53;;;;;;;12.23;6.43;;;;;;;3.00;92.70;96392.78;5027529;28;20065;-63
2022/04/05 05:14:18;;;;;;;14.15;6.43;;;;;;;3.04;92.37;96401.84;5015793;28;20558;-64
2022/04/05 05:16:44;;;;;;;11.38;6.75;;;;;;;3.12;91.78;96392.09;5010619;28;20073;-64
2022/04/05 05:19:12;;;;;;;10.40;6.18;;;;;;;3.25;89.28;96395.69;5015452;28;20462;-63
2022/04/05 05:21:38;;;;;;;9.57;5.55;;;;;;;3.26;88.60;96394.59;5013567;28;20032;-66
2022/04/05 05:24:04;;;;;;;11.95;6.18;;;;;;;3.22;88.01;96397.16;5010567;28;20030;-65
2022/04/05 05:26:29;;;;;;;13.55;6.45;;;;;;;3.35;88.39;96398.03;5013142;28;20026;-67
2022/04/05 05:28:55;;;;;;;10.75;6.25;;;;;;;3.49;86.02;96395.06;5011257;28;20025;-63
2022/04/05 05:31:20;;;;;;;11.55;6.75;;;;;;;3.56;86.67;96395.34;5012134;28;20041;-62
2022/04/05 05:33:46;;;;;;;10.20;6.05;;;;;;;3.65;85.32;96398.00;5010321;28;20050;-65
2022/04/05 05:36:11;;;;;;;12.07;6.20;;;;;;;3.52;85.02;96399.84;5012450;28;20040;-66
2022/04/05 05:38:37;;;;;;;15.90;6.95;;;;;;;3.67;84.18;96387.63;5011793;28;20030;-64
2022/04/05 05:41:02;;;;;;;12.10;7.00;;;;;;;3.62;82.92;96393.28;5011974;28;20044;-65
2022/04/05 05:43:28;;;;;;;9.85;6.10;;;;;;;3.63;80.70;96400.25;5013976;28;20115;-66
2022/04/05 05:45:53;;;;;;;10.48;6.13;;;;;;;3.79;80.03;96393.13;5012284;28;20462;-65
2022/04/05 05:48:19;;;;;;;12.82;6.15;;;;;;;3.78;80.70;96394.28;5010096;28;20148;-65
2022/04/05 05:50:45;;;;;;;8.80;5.38;;;;;;;3.96;78.78;96391.41;5011627;28;20064;-65
2022/04/05 05:53:10;;;;;;;8.80;5.38;;;;;;;3.93;77.33;96386.66;5013006;28;20037;-66
2022/04/05 05:55:35;;;;;;;11.77;6.63;;;;;;;4.03;77.59;96386.25;5012610;28;20029;-66
2022/04/05 05:58:05;;;;;;;9.65;6.10;;;;;;;4.04;75.21;96387.84;5011870;28;20105;-64
2022/04/05 06:00:30;;;;;;;12.40;5.80;;;;;;;4.32;74.50;96395.41;5012368;28;20032;-66
2022/04/05 06:02:58;;;;;;;9.30;5.50;;;;;;;4.40;74.51;96387.19;5010496;28;20707;-65
2022/04/05 06:05:25;;;;;;;10.82;5.45;;;;;;;4.57;71.60;96397.09;5012235;28;20026;-67
2022/04/05 06:07:51;;;;;;;10.60;5.68;;;;;;;4.67;72.44;96401.28;5012445;28;20033;-65
2022/04/05 06:10:17;;;;;;;11.88;6.40;;;;;;;4.64;70.63;96395.75;5013538;28;20026;-64
2022/04/05 06:12:45;;;;;;;8.57;5.60;;;;;;;4.60;70.99;96384.78;5015606;28;20052;-66
2022/04/05 06:15:15;;;;;;;10.70;6.10;;;;;;;4.40;71.95;96389.91;5019055;28;20022;-65
2022/04/05 06:17:43;;;;;;;11.38;6.35;;;;;;;4.47;71.90;96386.66;5027356;28;20065;-64
2022/04/05 06:20:10;;;;;;;12.10;7.20;;;;;;;4.53;73.22;96396.16;5023261;28;20037;-65
2022/04/05 06:22:53;;;;;;;12.50;6.63;;;;;;;4.41;75.23;96393.41;5023907;28;20037;-65
2022/04/05 06:25:21;;;;;;;13.38;6.80;;;;;;;4.35;76.12;96402.88;5025559;28;20022;-65
2022/04/05 06:27:47;;;;;;;12.43;7.57;;;;;;;4.33;77.24;96405.16;5030694;28;20022;-65
2022/04/05 06:30:14;;;;;;;14.23;7.72;;;;;;;4.26;77.44;96402.19;5028358;28;20037;-64
2022/04/05 06:32:40;;;;;;;16.27;7.47;;;;;;;4.29;78.64;96407.72;5019780;28;20036;-66
2022/04/05 06:35:08;;;;;;;14.25;7.35;;;;;;;4.26;78.54;96408.38;5018649;28;20093;-65
2022/04/05 06:37:35;;;;;;;16.92;8.45;;;;;;;4.39;77.46;96412.75;5019827;28;20033;-68
2022/04/05 06:40:03;;;;;;;13.32;7.93;;;;;;;4.27;78.58;96412.69;5020698;28;20030;-65
2022/04/05 06:42:29;;;;;;;13.95;7.75;;;;;;;4.26;79.61;96411.09;5016250;28;20036;-63
2022/04/05 06:44:54;;;;;;;14.63;8.38;;;;;;;4.27;80.51;96406.47;5015351;28;20394;-64
2022/04/05 06:47:20;;;;;;;13.90;8.50;;;;;;;4.24;81.85;96402.50;5012857;28;20022;-65
2022/04/05 06:49:45;;;;;;;14.25;8.60;;;;;;;4.19;84.11;96413.53;5014780;28;20040;-66
2022/04/05 06:52:11;;;;;;;15.20;8.05;;;;;;;4.12;83.62;96407.88;5018125;28;20064;-63
2022/04/05 06:54:36;;;;;;;16.73;9.05;;;;;;;4.07;85.03;96413.47;5022623;28;20037;-65
2022/04/05 06:57:02;;;;;;;12.38;8.27;;;;;;;4.10;85.11;96405.47;5016629;28;20060;-64
2022/04/05 06:59:27;;;;;;;14.38;8.25;;;;;;;4.20;85.59;96404.31;5016638;28;20038;-64
2022/04/05 07:01:53;;;;;;;13.98;8.70;;;;;;;4.11;85.09;96400.88;5014133;28;20081;-65
2022/04/05 07:04:18;;;;;;;14.18;8.40;;;;;;;4.02;86.60;96401.72;5014818;28;20092;-65
2022/04/05 07:06:44;;;;;;;15.02;8.88;;;;;;;4.06;86.04;96396.44;5015688;28;20038;-64
2022/04/05 07:09:09;;;;;;;15.57;8.35;;;;;;;4.17;85.41;96394.13;5015517;28;20432;-66
2022/04/05 07:11:35;;;;;;;16.10;8.57;;;;;;;4.15;85.70;96401.78;4979977;28;1170121;-64
2022/04/05 07:14:01;;;;;;;13.68;8.40;;;;;;;4.20;85.66;96402.38;4996802;28;20072;-65
2022/04/05 07:16:26;;;;;;;18.63;9.35;;;;;;;4.25;85.88;96401.38;5014639;28;20121;-64
2022/04/05 07:18:52;;;;;;;15.70;8.57;;;;;;;4.28;85.84;96400.72;5016315;28;20038;-63
2022/04/05 07:21:20;;;;;;;16.98;8.75;;;;;;;4.30;85.03;96389.53;5029428;28;20017;-62
2022/04/05 07:23:47;;;;;;;16.08;9.38;;;;;;;4.48;83.98;96392.88;5016406;28;20026;-65
2022/04/05 07:26:13;;;;;;;14.52;8.80;;;;;;;4.36;83.70;96399.06;5030770;28;20033;-64
2022/04/05 07:28:38;;;;;;;15.30;7.97;;;;;;;4.39;84.01;96411.94;5037147;28;20037;-62
2022/04/05 07:31:04;;;;;;;10.93;6.85;;;;;;;4.54;80.39;96405.91;5030940;28;20121;-66
2022/04/05 07:33:30;;;;;;;13.00;7.40;;;;;;;4.47;81.64;96397.50;5016294;28;20517;-65
2022/04/05 07:35:56;;;;;;;11.80;7.20;;;;;;;4.49;81.41;96408.81;5009780;28;20034;-65
2022/04/05 07:38:21;;;;;;;13.55;6.45;;;;;;;4.45;81.02;96383.50;5014584;28;20061;-63
2022/04/05 07:40:50;;;;;;;15.60;6.15;;;;;;;4.47;81.00;96399.44;5015084;28;20064;-64
2022/04/05 07:43:22;;;;;;;13.68;6.40;;;;;;;4.58;82.36;96400.59;5015397;28;20088;-64
2022/04/05 07:45:49;;;;;;;10.25;5.95;;;;;;;4.78;80.63;96398.94;5008135;28;20141;-64
2022/04/05 07:48:19;;;;;;;9.55;6.03;;;;;;;4.75;80.31;96396.91;5015211;28;20029;-65
2022/04/05 07:50:45;;;;;;;11.02;6.05;;;;;;;4.81;81.98;96387.44;5016980;28;20057;-64
2022/04/05 07:53:11;;;;;;;11.15;6.03;;;;;;;4.90;80.29;96384.63;5016398;28;20501;-65
2022/04/05 07:55:37;;;;;;;10.07;6.40;;;;;;;4.95;79.85;96390.63;5016626;28;20037;-66
2022/04/05 07:58:03;;;;;;;10.02;6.07;;;;;;;4.81;80.65;96394.75;5017710;28;20034;-68
2022/04/05 08:00:28;;;;;;;12.40;6.55;;;;;;;4.78;80.25;96391.59;5011941;28;20137;-66
2022/04/05 08:02:54;;;;;;;14.27;6.45;;;;;;;4.87;80.34;96388.00;5014198;28;20034;-65
2022/04/05 08:05:19;;;;;;;10.10;6.65;;;;;;;4.69;80.33;96384.69;5010794;28;20030;-66
2022/04/05 08:07:46;;;;;;;16.10;6.68;;;;;;;4.84;80.59;96391.38;5013864;28;20714;-66
2022/04/05 08:10:13;;;;;;;12.60;6.05;;;;;;;5.07;79.38;96389.03;5016090;28;20034;-65
2022/04/05 08:12:49;;;;;;;11.23;6.70;;;;;;;5.21;78.19;96388.72;5015254;28;20061;-64
2022/04/05 08:15:20;;;;;;;12.63;6.03;;;;;;;4.97;77.76;96387.56;5016855;28;20060;-63
2022/04/05 08:17:46;;;;;;;10.32;5.70;;;;;;;4.85;78.79;96385.63;5020372;28;20076;-65
2022/04/05 08:20:12;;;;;;;13.25;5.95;;;;;;;4.90;77.97;96385.41;5016008;28;20058;-66
2022/04/05 08:22:38;;;;;;;15.38;6.57;;;;;;;4.93;77.63;96382.03;5012269;28;20045;-64
2022/04/05 08:25:05;;;;;;;11.65;6.35;;;;;;;4.92;77.28;96385.84;5002020;28;20045;-63
2022/04/05 08:27:31;;;;;;;10.80;6.60;;;;;;;4.92;77.73;96388.56;5004365;28;20042;-65
2022/04/05 08:29:56;;;;;;;13.70;8.45;;;;;;;5.13;77.45;96377.63;5009706;28;21027;-67
2022/04/05 08:32:21;;;;;;;13.27;6.75;;;;;;;5.17;75.75;96380.47;5013052;28;20244;-69
2022/04/05 08:34:47;;;;;;;18.52;8.20;;;;;;;5.29;74.82;96385.88;5020706;28;20081;-64
2022/04/05 08:37:13;;;;;;;10.43;5.97;;;;;;;5.07;75.89;96394.47;5018403;28;20041;-65
2022/04/05 08:39:39;;;;;;;12.77;6.43;;;;;;;5.22;74.57;96384.84;5024539;28;20045;-65
2022/04/05 08:42:06;;;;;;;11.35;6.28;;;;;;;5.31;74.23;96389.06;5018084;28;20049;-62
2022/04/05 08:44:32;;;;;;;11.60;6.53;;;;;;;5.22;74.70;96391.09;5023566;28;20041;-66
2022/04/05 08:47:00;;;;;;;10.73;6.38;;;;;;;5.28;74.09;96387.00;5023885;28;20037;-65
2022/04/05 08:49:28;;;;;;;12.52;6.93;;;;;;;5.22;73.83;96387.56;5015500;28;20045;-65
2022/04/05 08:51:54;;;;;;;16.63;5.95;;;;;;;5.27;74.32;96399.00;5023499;28;20049;-66
2022/04/05 08:54:20;;;;;;;11.80;6.75;;;;;;;5.39;73.73;96386.56;5034639;28;20037;-66
2022/04/05 08:56:47;;;;;;;13.32;6.60;;;;;;;5.66;72.77;96394.00;5043679;28;20077;-67
2022/04/05 08:59:20;;;;;;;11.77;7.32;;;;;;;5.78;71.92;96382.34;5036673;28;20044;-65
2022/04/05 09:01:45;;;;;;;15.88;7.60;;;;;;;5.61;71.39;96379.84;5035853;28;20041;-65
2022/04/05 09:04:12;;;;;;;17.20;8.48;;;;;;;5.71;70.65;96376.69;5018761;28;20034;-66
2022/04/05 09:06:37;;;;;;;10.38;6.25;;;;;;;5.60;71.73;96380.97;5022875;28;20033;-64
2022/04/05 09:09:17;;;;;;;17.17;7.53;;;;;;;5.46;72.29;96381.34;5018907;28;20038;-62
2022/04/05 09:11:43;;;;;;;11.57;6.93;;;;;;;5.55;71.84;96384.75;5020926;28;20037;-66
2022/04/05 09:14:10;;;;;;;9.82;6.22;;;;;;;5.67;71.12;96387.44;4993272;28;20180;-65
2022/04/05 09:16:36;;;;;;;11.70;6.35;;;;;;;5.77;70.43;96390.81;4998162;28;20497;-67
2022/04/05 09:19:13;;;;;;;11.38;5.60;;;;;;;5.83;68.20;96382.06;5002922;28;20133;-64
2022/04/05 09:21:52;;;;;;;8.82;5.82;;;;;;;5.85;67.33;96381.72;5002037;28;20575;-66
2022/04/05 09:24:21;;;;;;;7.60;4.28;;;;;;;5.99;65.67;96376.75;4996293;28;20132;-66
2022/04/05 09:26:47;;;;;;;8.25;4.32;;;;;;;5.92;65.97;96376.50;5001755;28;20052;-65
2022/04/05 09:29:14;;;;;;;7.43;4.45;;;;;;;5.89;66.51;96374.50;4997024;28;20041;-62
2022/04/05 09:31:46;;;;;;;6.60;4.47;;;;;;;5.97;66.51;96372.78;5019595;28;20053;-65
2022/04/05 09:34:12;;;;;;;11.45;4.50;;;;;;;6.19;66.08;96371.47;5000052;28;20121;-67
2022/04/05 09:36:44;;;;;;;23.77;5.30;;;;;;;6.26;65.00;96366.22;5002792;28;20774;-66
2022/04/05 09:39:20;;;;;;;6.82;3.67;;;;;;;6.44;65.01;96366.72;4999837;28;20045;-66
2022/04/05 09:42:00;;;;;;;11.45;5.28;;;;;;;6.64;64.74;96375.78;5002066;28;20099;-68
2022/04/05 09:44:31;;;;;;;8.45;4.47;;;;;;;6.61;64.80;96369.13;4998793;28;20109;-66
2022/04/05 09:47:05;;;;;;;6.30;3.80;;;;;;;6.52;63.40;96371.22;5005635;28;20056;-66
2022/04/05 09:49:34;;;;;;;8.30;4.10;;;;;;;6.67;63.92;96367.72;5006342;28;20038;-68
2022/04/05 09:52:00;;;;;;;9.40;5.40;;;;;;;6.67;63.76;96361.50;5008067;28;20498;-66
2022/04/05 09:54:30;;;;;;;8.20;4.30;;;;;;;6.95;62.45;96368.78;5006924;28;20061;-65
2022/04/05 09:56:59;;;;;;;16.17;8.02;;;;;;;7.05;61.19;96360.88;5013937;28;20041;-66
2022/04/05 09:59:25;;;;;;;8.93;4.30;;;;;;;7.07;62.17;96361.31;5003302;28;20812;-67
2022/04/05 10:01:56;;;;;;;7.72;4.03;;;;;;;7.39;61.11;96366.75;5022004;28;20037;-66
2022/04/05 10:04:22;;;;;;;6.60;3.75;;;;;;;7.70;60.24;96369.78;4995662;28;20117;-66
2022/04/05 10:06:48;;;;;;;7.93;3.75;;;;;;;7.87;59.70;96363.94;5002580;28;20098;-66
2022/04/05 10:09:16;;;;;;;8.38;4.05;;;;;;;8.11;58.26;96362.06;4979223;28;20076;-65
2022/04/05 10:11:43;;;;;;;8.00;4.10;;;;;;;8.09;58.36;96369.84;5001044;28;20128;-66
2022/04/05 10:14:10;;;;;;;6.70;3.95;;;;;;;7.88;58.28;96359.25;4996943;28;20060;-66
2022/04/05 10:16:37;;;;;;;8.98;3.97;;;;;;;7.76;58.78;96360.16;5001085;28;20502;-64
2022/04/05 10:19:10;;;;;;;6.88;4.30;;;;;;;7.85;59.49;96358.81;4999495;28;20042;-65
2022/04/05 10:21:37;;;;;;;7.93;4.35;;;;;;;7.95;59.07;96360.19;5001785;28;20107;-65
2022/04/05 10:24:05;;;;;;;11.57;5.80;;;;;;;7.92;59.26;96354.66;5001122;28;20502;-61
2022/04/05 10:26:39;;;;;;;9.73;4.43;;;;;;;7.95;59.66;96354.75;5004240;28;20049;-65
2022/04/05 10:29:08;;;;;;;8.18;4.78;;;;;;;8.14;59.38;96343.06;4998200;28;20195;-61
2022/04/05 10:31:58;;;;;;;8.13;5.03;;;;;;;8.38;58.54;96349.34;5001977;28;20033;-67
2022/04/05 10:34:26;;;;;;;7.40;4.18;;;;;;;8.59;57.92;96343.56;4997227;28;20748;-67
2022/04/05 10:37:05;;;;;;;9.70;5.55;;;;;;;8.54;58.11;96339.16;5002068;28;20065;-65
2022/04/05 10:39:31;;;;;;;9.60;4.90;;;;;;;8.79;57.96;96328.69;5001859;28;20041;-64
2022/04/05 10:42:09;;;;;;;7.60;3.90;;;;;;;8.61;58.35;96320.19;5002458;28;20041;-64
2022/04/05 10:44:36;;;;;;;6.32;4.13;;;;;;;8.87;56.82;96321.41;5001111;28;20440;-68
2022/04/05 10:47:06;;;;;;;9.48;4.57;;;;;;;8.91;57.54;96329.66;5000310;28;20045;-66
2022/04/05 10:49:42;;;;;;;8.82;4.35;;;;;;;8.71;58.34;96318.00;5004515;28;20046;-67
2022/04/05 10:52:12;;;;;;;6.35;3.78;;;;;;;8.82;58.37;96318.19;5012657;28;20057;-62
2022/04/05 10:54:49;;;;;;;10.30;4.78;;;;;;;8.76;58.81;96302.09;5015923;28;20050;-63
2022/04/05 10:57:37;;;;;;;7.95;4.90;;;;;;;8.75;57.99;96310.66;5000352;28;20333;-65
2022/04/05 11:00:11;;;;;;;7.50;4.43;;;;;;;8.99;58.39;96304.03;4985193;28;20132;-63
2022/04/05 11:02:38;;;;;;;8.20;4.68;;;;;;;9.01;59.70;96298.22;5002248;28;20092;-64
2022/04/05 11:05:13;;;;;;;7.97;3.90;;;;;;;9.03;58.49;96299.41;4999602;28;20117;-62
2022/04/05 11:07:51;;;;;;;12.32;5.75;;;;;;;9.17;58.75;96299.66;5000289;28;20033;-66
2022/04/05 11:10:18;;;;;;;7.35;4.22;;;;;;;9.26;58.08;96302.13;4992940;28;20045;-65
2022/04/05 11:12:44;;;;;;;7.53;4.28;;;;;;;9.04;59.09;96301.00;4999002;28;20042;-64
2022/04/05 11:15:13;;;;;;;9.25;4.28;;;;;;;9.19;58.79;96291.09;4992481;28;20042;-63
2022/04/05 11:17:41;;;;;;;8.88;4.22;;;;;;;9.32;59.04;96299.84;4999484;28;20563;-67
2022/04/05 11:20:08;;;;;;;8.77;4.82;;;;;;;9.64;58.66;96299.53;4997545;28;20038;-63
2022/04/05 11:22:38;;;;;;;15.90;5.18;;;;;;;10.06;57.88;96295.75;4998123;28;20050;-65
2022/04/05 11:25:25;;;;;;;8.25;5.60;;;;;;;10.26;57.34;96291.69;5007900;28;20117;-63
2022/04/05 11:27:52;;;;;;;6.38;4.18;;;;;;;9.74;55.12;96288.75;5025420;28;20057;-65
2022/04/05 11:30:36;;;;;;;15.20;5.18;;;;;;;9.95;54.78;96280.00;5018207;28;20057;-64
2022/04/05 11:33:09;;;;;;;6.75;4.22;;;;;;;9.86;55.12;96279.50;5022160;28;20073;-61
2022/04/05 11:36:04;;;;;;;12.48;5.28;;;;;;;9.92;59.46;96286.22;5006853;28;20781;-67
2022/04/05 11:38:34;;;;;;;12.32;6.40;;;;;;;9.16;65.79;96287.16;4990279;28;20093;-62